aviador You're here:

KSUE Decoded Metar

STURGEON BAY in WI, USA
Report Time2018-05-25 19:56:00
UTC Time2018-05-25 20:50:27
Flight Rules vfr VFR
Wind230° at 18 Gusting to 23 kt
W.Decomp.*RWY 20: 15.1 kt HW 9.8 kt RCW
RWY 28: 12.3 kt HW 13.2 kt LCW
W.Rank230° ranks 19
Current wind is above 230° avg. (8.1)
Visibility9999 m
Phenomena:N/A
Clouds:N/A
Expected CloudBase > 6,800 ft AGL from Temp-Dew spread
CeilingNone
Temp32°C (ISA +18)
Dew Point15°C (36% RH)
Heat Index31.6°C
AAT27.1°C
QNH1007 hPa
Density Alt3,258 ft
Elevation725 ft
Report Wrong Elevation
Raw Report
KSUE 251956Z AUTO 23018G23KT 10SM CLR 32/15 A2974 RMK AO2 PK WND
25026/1932 SLP080 T03170150=

Extra information for KSUE:More info

Metar Taf Metar & Taf Last 4 Metars F.Rules Stats Wind Profile Meteogram Temp Stats Airport Information Weather charts Add Link Nearby VenuesMetar ALERT Operation Metar Decoded Social comments

AIRNAV info for KSUE